Time;durP1;ratioP1;P1;durP2;ratioP2;P2;SDS_P1;SDS_P2;PMS_P1;PMS_P2;Temp;Humidity;BMP_temperature;BMP_pressure;BME280_temperature;BME280_humidity;BME280_pressure;Samples;Min_cycle;Max_cycle;Signal;HPM_P1;HPM_P2
2022/07/11 00:02:13;;;;;;;3.20;2.30;;;;;;;14.12;64.66;97148.48;110291;1246;60489;-73
2022/07/11 00:04:44;;;;;;;3.60;2.60;;;;;;;14.11;64.75;97144.95;110343;1247;72857;-73
2022/07/11 00:07:15;;;;;;;3.90;2.20;;;;;;;14.08;65.25;97144.34;110367;1246;67615;-73
2022/07/11 00:09:45;;;;;;;3.50;2.70;;;;;;;14.06;65.30;97145.71;110163;1247;69250;-72
2022/07/11 00:12:15;;;;;;;2.50;1.80;;;;;;;14.01;65.80;97146.00;110292;1247;60774;-72
2022/07/11 00:14:45;;;;;;;2.40;2.00;;;;;;;14.01;65.48;97146.86;110142;1247;60492;-72
2022/07/11 00:17:15;;;;;;;4.20;2.20;;;;;;;14.02;65.39;97147.69;110299;1246;72849;-72
2022/07/11 00:19:46;;;;;;;2.40;1.90;;;;;;;14.04;64.97;97145.23;110069;1247;67695;-71
2022/07/11 00:22:16;;;;;;;3.30;2.30;;;;;;;14.07;64.97;97145.50;110066;1247;69360;-74
2022/07/11 00:24:47;;;;;;;2.20;2.00;;;;;;;14.09;65.03;97150.72;110353;1247;60517;-72
2022/07/11 00:27:19;;;;;;;3.10;2.00;;;;;;;14.10;65.56;97150.63;110103;1247;60487;-72
2022/07/11 00:29:51;;;;;;;2.50;1.80;;;;;;;14.08;65.63;97153.45;110260;1246;72225;-73
2022/07/11 00:32:20;;;;;;;2.70;1.90;;;;;;;14.08;65.40;97149.74;110051;1247;68571;-73
2022/07/11 00:34:51;;;;;;;3.40;2.40;;;;;;;14.09;65.07;97147.91;110290;1247;68610;-73
2022/07/11 00:37:23;;;;;;;3.00;2.00;;;;;;;14.05;65.73;97153.39;110321;1246;61133;-72
2022/07/11 00:39:53;;;;;;;2.90;2.10;;;;;;;14.01;66.02;97160.05;110258;1247;60487;-73
2022/07/11 00:42:23;;;;;;;2.80;1.70;;;;;;;14.00;66.17;97157.86;110184;1246;71453;-72
2022/07/11 00:44:53;;;;;;;4.30;2.70;;;;;;;14.00;66.01;97156.98;110284;1247;68403;-73
2022/07/11 00:47:23;;;;;;;2.40;1.80;;;;;;;14.02;65.90;97156.23;110193;1247;69312;-74
2022/07/11 00:49:53;;;;;;;;;;;;;;;14.04;65.35;97155.79;110277;1247;60572;-73
2022/07/11 00:52:24;;;;;;;3.40;2.10;;;;;;;14.03;66.04;97157.02;110348;1245;60445;-74
2022/07/11 00:54:55;;;;;;;3.00;2.60;;;;;;;14.04;65.42;97152.19;110361;1247;70550;-72
2022/07/11 00:57:26;;;;;;;3.00;1.90;;;;;;;14.04;65.97;97153.85;110337;1246;68374;-74
2022/07/11 00:59:57;;;;;;;2.50;1.70;;;;;;;14.04;65.74;97150.26;110457;1246;69234;-73
2022/07/11 01:02:27;;;;;;;2.80;1.70;;;;;;;14.07;65.53;97147.73;110364;1247;60566;-74
2022/07/11 01:04:58;;;;;;;;;;;;;;;14.09;65.40;97148.47;110185;1246;60558;-72
2022/07/11 01:07:30;;;;;;;1.90;1.50;;;;;;;14.10;65.85;97151.83;110279;1247;71581;-73
2022/07/11 01:10:01;;;;;;;2.00;1.60;;;;;;;14.13;64.91;97150.91;109984;1248;67905;-70
2022/07/11 01:12:31;;;;;;;;;;;;;;;14.14;65.08;97149.24;110207;1247;69460;-72
2022/07/11 01:15:07;;;;;;;2.80;1.70;;;;;;;14.11;66.80;97151.09;110293;1245;60558;-72
2022/07/11 01:17:40;;;;;;;2.20;1.70;;;;;;;14.11;65.58;97152.80;110247;1247;60513;-72
2022/07/11 01:20:12;;;;;;;2.20;1.80;;;;;;;14.11;65.25;97148.46;110225;1247;72337;-73
2022/07/11 01:22:50;;;;;;;2.20;1.80;;;;;;;14.10;64.76;97146.05;110194;1247;66723;-72
2022/07/11 01:25:34;;;;;;;3.30;1.80;;;;;;;14.10;64.98;97147.10;110256;1247;68644;-72
2022/07/11 01:28:06;;;;;;;2.30;1.80;;;;;;;14.10;64.75;97148.54;110247;1247;60988;-73
2022/07/11 01:30:36;;;;;;;1.60;1.50;;;;;;;14.08;65.25;97150.44;110422;1245;60476;-72
2022/07/11 01:33:06;;;;;;;2.10;1.70;;;;;;;14.05;65.02;97154.39;110348;1247;72253;-74
2022/07/11 01:35:37;;;;;;;2.40;1.80;;;;;;;14.02;66.17;97154.68;110169;1247;69103;-72
2022/07/11 01:38:09;;;;;;;2.20;1.90;;;;;;;13.98;65.48;97156.06;110252;1247;69411;-72
2022/07/11 01:40:42;;;;;;;2.20;1.50;;;;;;;13.95;65.64;97158.27;110126;1247;60549;-72
2022/07/11 01:43:15;;;;;;;2.50;1.70;;;;;;;13.92;65.44;97157.89;110355;1246;60469;-72
2022/07/11 01:45:51;;;;;;;2.10;1.50;;;;;;;13.88;65.29;97160.33;110055;1248;72143;-74
2022/07/11 01:48:22;;;;;;;2.60;1.50;;;;;;;13.84;65.51;97160.71;110438;1247;67811;-72
2022/07/11 01:50:54;;;;;;;2.70;2.20;;;;;;;13.79;64.90;97155.02;110422;1247;68625;-73
2022/07/11 01:53:24;;;;;;;3.80;2.50;;;;;;;13.73;64.60;97154.10;110353;1246;60554;-72
2022/07/11 01:55:57;;;;;;;2.70;2.20;;;;;;;13.65;66.69;97156.75;110338;1247;59382;-73
2022/07/11 01:58:48;;;;;;;3.50;2.00;;;;;;;13.57;67.45;97159.09;110306;1247;72325;-72
2022/07/11 02:01:20;;;;;;;4.30;2.50;;;;;;;13.50;67.43;97159.48;110378;1247;68453;-72
2022/07/11 02:04:00;;;;;;;;;;;;;;;13.44;70.23;97160.98;110143;1247;68666;-73
2022/07/11 02:06:30;;;;;;;2.90;2.00;;;;;;;13.38;69.94;97159.52;110280;1247;60568;-73
2022/07/11 02:09:02;;;;;;;3.70;2.00;;;;;;;13.35;68.93;97163.67;110139;1249;60542;-73
2022/07/11 02:11:34;;;;;;;2.70;2.00;;;;;;;13.30;70.58;97167.58;110186;1247;71393;-74
2022/07/11 02:14:05;;;;;;;3.20;2.10;;;;;;;13.25;70.44;97166.12;110391;1247;67793;-71
2022/07/11 02:16:37;;;;;;;2.70;2.10;;;;;;;13.21;71.51;97170.43;110220;1247;69414;-73
2022/07/11 02:19:10;;;;;;;2.90;1.90;;;;;;;13.16;71.89;97169.44;110279;1247;60519;-72
2022/07/11 02:21:42;;;;;;;3.00;2.00;;;;;;;13.12;70.59;97168.64;110016;1250;60484;-74
2022/07/11 02:24:12;;;;;;;2.40;1.80;;;;;;;13.07;69.98;97171.67;110178;1247;71543;-70
2022/07/11 02:26:43;;;;;;;2.10;1.60;;;;;;;13.02;69.39;97176.79;110093;1247;67841;-73
2022/07/11 02:29:14;;;;;;;2.20;1.70;;;;;;;12.98;68.74;97179.79;110376;1247;70331;-73
2022/07/11 02:31:44;;;;;;;2.60;2.00;;;;;;;12.92;70.84;97181.86;110299;1247;60531;-73
2022/07/11 02:34:14;;;;;;;3.00;1.90;;;;;;;12.88;70.44;97183.14;109931;1250;60459;-74
2022/07/11 02:36:46;;;;;;;2.80;1.50;;;;;;;12.82;69.36;97181.52;110205;1247;71546;-74
2022/07/11 02:39:15;;;;;;;2.60;2.00;;;;;;;12.75;68.52;97178.96;110202;1247;68478;-73
2022/07/11 02:41:45;;;;;;;2.90;2.30;;;;;;;12.70;69.96;97182.48;110353;1247;69797;-74
2022/07/11 02:44:15;;;;;;;;;;;;;;;12.68;70.16;97184.45;110130;1247;60900;-75
2022/07/11 02:46:46;;;;;;;3.80;2.00;;;;;;;12.64;69.96;97182.49;110192;1248;60504;-74
2022/07/11 02:49:17;;;;;;;2.60;2.10;;;;;;;12.61;69.75;97182.40;110161;1248;71608;-74
2022/07/11 02:51:47;;;;;;;3.20;2.10;;;;;;;12.59;71.23;97187.63;110270;1247;68532;-73
2022/07/11 02:54:17;;;;;;;2.90;2.20;;;;;;;12.57;70.92;97190.96;110046;1247;68602;-74
2022/07/11 02:56:49;;;;;;;3.60;2.10;;;;;;;12.53;72.14;97194.63;110311;1247;60554;-73
2022/07/11 02:59:21;;;;;;;3.30;2.20;;;;;;;12.47;73.05;97195.67;110237;1247;60550;-73
2022/07/11 03:01:55;;;;;;;3.40;2.10;;;;;;;12.43;72.45;97194.44;110352;1246;71772;-74
2022/07/11 03:04:25;;;;;;;2.60;2.30;;;;;;;12.40;71.77;97193.29;110407;1246;68679;-73
2022/07/11 03:06:57;;;;;;;3.60;2.20;;;;;;;12.38;71.60;97195.53;110220;1247;69466;-73
2022/07/11 03:09:29;;;;;;;2.80;2.40;;;;;;;12.36;73.43;97200.27;110284;1247;60510;-74
2022/07/11 03:11:58;;;;;;;3.50;2.50;;;;;;;12.34;74.43;97202.50;110327;1246;60444;-74
2022/07/11 03:14:28;;;;;;;3.40;2.60;;;;;;;12.36;72.71;97204.15;110299;1245;71948;-72
2022/07/11 03:16:58;;;;;;;3.90;2.40;;;;;;;12.39;74.80;97204.95;110346;1246;68459;-72
2022/07/11 03:19:31;;;;;;;4.10;2.60;;;;;;;12.41;73.41;97204.90;110316;1246;68477;-74
2022/07/11 03:22:01;;;;;;;3.50;2.30;;;;;;;12.40;74.63;97207.27;110267;1247;60462;-76
2022/07/11 03:24:30;;;;;;;3.90;2.30;;;;;;;12.40;73.17;97207.46;110159;1247;60482;-71
2022/07/11 03:27:00;;;;;;;2.90;2.40;;;;;;;12.39;72.04;97209.64;110394;1247;72315;-72
2022/07/11 03:29:33;;;;;;;2.50;2.20;;;;;;;12.39;73.03;97210.67;110250;1247;68513;-72
2022/07/11 03:32:03;;;;;;;4.50;2.40;;;;;;;12.38;72.57;97207.91;110283;1247;69227;-72
2022/07/11 03:34:33;;;;;;;4.30;2.70;;;;;;;12.38;71.05;97206.87;110272;1246;60503;-74
2022/07/11 03:37:04;;;;;;;3.40;2.50;;;;;;;12.37;71.61;97207.98;110147;1247;60484;-72
2022/07/11 03:39:35;;;;;;;3.00;2.60;;;;;;;12.37;71.53;97207.88;110246;1247;71601;-73
2022/07/11 03:42:06;;;;;;;3.60;2.80;;;;;;;12.37;73.52;97211.05;109999;1249;68779;-72
2022/07/11 03:44:35;;;;;;;5.00;3.00;;;;;;;12.33;74.57;97209.80;110176;1247;68822;-74
2022/07/11 03:47:05;;;;;;;4.00;2.80;;;;;;;12.32;74.81;97209.11;110276;1247;60519;-72
2022/07/11 03:49:35;;;;;;;5.10;2.90;;;;;;;12.33;75.03;97208.07;110139;1247;60417;-74
2022/07/11 03:52:06;;;;;;;4.20;2.60;;;;;;;12.34;74.60;97208.64;110146;1247;72245;-72
2022/07/11 03:54:36;;;;;;;;;;;;;;;12.36;74.26;97210.02;110272;1247;68055;-71
2022/07/11 03:57:08;;;;;;;3.80;2.90;;;;;;;12.39;73.13;97216.59;110028;1247;69596;-72
2022/07/11 03:59:37;;;;;;;6.40;3.90;;;;;;;12.44;73.85;97217.06;110152;1247;60562;-74
2022/07/11 04:02:06;;;;;;;3.40;3.00;;;;;;;12.51;74.57;97221.33;110241;1245;60489;-72
2022/07/11 04:04:36;;;;;;;3.70;3.10;;;;;;;12.59;73.08;97221.08;110137;1247;72317;-73
2022/07/11 04:07:06;;;;;;;3.70;2.90;;;;;;;12.66;73.94;97227.06;110220;1247;67827;-73
2022/07/11 04:09:36;;;;;;;4.00;3.00;;;;;;;12.76;73.61;97230.08;110043;1248;68550;-75
2022/07/11 04:12:06;;;;;;;4.30;2.80;;;;;;;12.88;73.45;97231.05;110244;1247;60533;-72
2022/07/11 04:14:36;;;;;;;3.80;2.80;;;;;;;12.97;72.68;97230.43;110213;1247;60486;-72
2022/07/11 04:17:06;;;;;;;3.40;2.70;;;;;;;13.07;73.13;97231.70;110255;1246;71486;-72
2022/07/11 04:19:36;;;;;;;3.20;2.70;;;;;;;13.16;72.58;97230.73;110263;1247;68462;-71
2022/07/11 04:22:06;;;;;;;3.30;2.50;;;;;;;13.26;72.30;97234.46;110208;1247;68475;-71
2022/07/11 04:24:35;;;;;;;;;;;;;;;13.35;72.43;97228.47;110162;1247;60463;-71
2022/07/11 04:27:05;;;;;;;3.70;2.40;;;;;;;13.44;71.63;97230.06;110234;1246;60642;-71
2022/07/11 04:29:36;;;;;;;3.40;2.30;;;;;;;13.53;71.72;97229.83;110198;1247;71455;-72
2022/07/11 04:32:06;;;;;;;3.30;2.30;;;;;;;13.62;71.45;97231.27;110273;1247;68417;-72
2022/07/11 04:34:36;;;;;;;3.90;2.80;;;;;;;13.75;70.40;97235.06;110325;1247;68267;-72
2022/07/11 04:37:05;;;;;;;3.10;2.40;;;;;;;13.86;69.73;97237.40;110238;1247;60480;-72
2022/07/11 04:39:39;;;;;;;3.30;2.60;;;;;;;13.98;69.41;97238.26;110233;1246;60438;-74
2022/07/11 04:42:19;;;;;;;2.40;2.20;;;;;;;14.05;69.26;97238.14;110226;1246;71510;-70
2022/07/11 04:44:56;;;;;;;3.30;2.20;;;;;;;14.17;69.03;97245.84;110064;1247;68588;-73
2022/07/11 04:47:32;;;;;;;2.80;2.10;;;;;;;14.23;68.23;97246.11;110177;1246;69509;-76
2022/07/11 04:50:02;;;;;;;2.60;2.20;;;;;;;14.31;67.80;97251.80;110174;1247;60619;-74
2022/07/11 04:52:31;;;;;;;3.10;2.10;;;;;;;14.41;67.37;97256.52;110241;1247;60489;-72
2022/07/11 04:55:00;;;;;;;3.60;2.60;;;;;;;14.27;67.02;97260.52;110266;1246;72144;-72
2022/07/11 04:57:31;;;;;;;3.30;2.60;;;;;;;14.33;66.73;97261.59;110170;1247;68138;-72
2022/07/11 05:00:00;;;;;;;3.30;2.30;;;;;;;14.32;66.38;97266.38;110140;1247;68650;-73
2022/07/11 05:02:30;;;;;;;3.20;2.40;;;;;;;14.38;66.25;97269.17;110173;1247;60484;-73
2022/07/11 05:04:59;;;;;;;3.70;2.50;;;;;;;14.34;66.47;97274.82;110189;1247;60529;-73
2022/07/11 05:07:28;;;;;;;3.20;2.20;;;;;;;14.45;66.57;97277.50;110163;1247;72400;-74
2022/07/11 05:09:59;;;;;;;3.20;2.40;;;;;;;14.48;66.43;97279.33;110125;1247;68680;-72
2022/07/11 05:12:28;;;;;;;2.60;2.40;;;;;;;14.55;66.55;97279.85;110175;1247;69467;-74
2022/07/11 05:15:00;;;;;;;2.70;2.30;;;;;;;14.60;65.88;97281.44;110147;1247;60569;-71
2022/07/11 05:17:29;;;;;;;3.10;2.10;;;;;;;14.67;65.74;97281.85;110078;1250;60464;-74
2022/07/11 05:19:58;;;;;;;3.10;2.40;;;;;;;14.83;65.68;97284.08;110166;1247;71559;-73
2022/07/11 05:22:28;;;;;;;2.60;2.10;;;;;;;14.97;64.96;97286.23;110020;1248;68618;-73
2022/07/11 05:24:58;;;;;;;2.40;2.20;;;;;;;15.03;64.06;97286.96;110183;1247;68863;-72
2022/07/11 05:27:27;;;;;;;2.90;1.90;;;;;;;15.14;63.89;97287.52;110095;1250;60617;-72
2022/07/11 05:29:56;;;;;;;3.80;2.10;;;;;;;15.20;63.26;97285.48;110193;1247;60510;-71
2022/07/11 05:32:26;;;;;;;4.20;2.30;;;;;;;15.25;63.46;97283.93;110123;1247;71581;-72
2022/07/11 05:35:03;;;;;;;3.40;2.30;;;;;;;15.37;63.96;97283.06;110105;1247;68487;-71
2022/07/11 05:37:36;;;;;;;3.40;2.30;;;;;;;15.42;63.36;97284.39;110056;1249;69205;-70
2022/07/11 05:40:06;;;;;;;2.40;1.90;;;;;;;15.51;63.10;97287.70;109833;1250;60560;-72
2022/07/11 05:42:35;;;;;;;;;;;;;;;15.57;62.88;97288.23;110249;1247;60522;-73
2022/07/11 05:45:04;;;;;;;2.90;2.00;;;;;;;15.55;62.28;97292.61;110149;1248;72381;-72
2022/07/11 05:47:33;;;;;;;3.20;2.20;;;;;;;15.50;62.03;97289.20;110208;1247;67836;-71
2022/07/11 05:50:03;;;;;;;3.50;1.90;;;;;;;15.43;61.85;97288.41;110165;1246;68660;-70
2022/07/11 05:52:32;;;;;;;;;;;;;;;15.48;62.06;97287.66;110196;1247;60436;-72
2022/07/11 05:55:01;;;;;;;3.00;2.40;;;;;;;15.35;61.98;97286.22;110201;1247;60507;-72
2022/07/11 05:57:31;;;;;;;3.50;1.90;;;;;;;15.29;62.23;97287.11;110310;1247;72623;-70
2022/07/11 06:00:01;;;;;;;3.50;2.20;;;;;;;15.32;62.33;97287.94;110169;1246;67620;-73
2022/07/11 06:02:37;;;;;;;3.00;2.40;;;;;;;15.47;62.62;97288.44;110122;1247;68654;-71
2022/07/11 06:05:07;;;;;;;2.70;2.30;;;;;;;15.70;62.49;97282.77;110210;1247;60475;-72
2022/07/11 06:10:31;;;;;;;3.20;2.00;;;;;;;16.23;60.54;97280.94;110236;1247;71370;-71
2022/07/11 06:13:01;;;;;;;2.40;2.10;;;;;;;16.46;59.17;97279.98;110206;1247;67730;-71
2022/07/11 06:15:30;;;;;;;3.40;2.10;;;;;;;16.71;59.34;97283.30;110031;1247;69233;-72
2022/07/11 06:17:59;;;;;;;3.10;2.20;;;;;;;16.98;58.48;97286.27;110111;1247;60508;-72
2022/07/11 06:20:29;;;;;;;2.60;2.00;;;;;;;17.27;57.75;97286.23;110154;1247;60492;-72
2022/07/11 06:22:58;;;;;;;4.80;2.10;;;;;;;17.61;56.73;97282.39;110081;1247;71844;-72
2022/07/11 06:25:27;;;;;;;2.90;1.70;;;;;;;17.99;55.65;97284.48;110247;1247;68603;-72
2022/07/11 06:27:56;;;;;;;3.20;2.00;;;;;;;18.15;52.90;97287.66;110152;1247;69395;-72
2022/07/11 06:30:26;;;;;;;2.90;2.10;;;;;;;18.57;53.93;97290.27;110198;1247;60478;-72
2022/07/11 06:32:55;;;;;;;;;;;;;;;18.90;53.54;97290.80;110143;1247;60498;-74
2022/07/11 06:35:24;;;;;;;3.50;2.20;;;;;;;19.21;51.55;97291.09;110237;1247;72456;-73
2022/07/11 06:37:53;;;;;;;2.90;2.10;;;;;;;19.21;51.03;97286.55;110034;1247;68758;-73
2022/07/11 06:40:23;;;;;;;4.10;2.10;;;;;;;19.22;51.15;97287.84;110190;1247;68254;-73
2022/07/11 06:42:52;;;;;;;;;;;;;;;19.40;50.65;97291.35;110107;1248;60547;-72
2022/07/11 06:45:21;;;;;;;2.20;1.90;;;;;;;19.22;50.13;97293.32;110402;1247;60567;-73
2022/07/11 06:47:50;;;;;;;2.40;2.10;;;;;;;19.21;50.53;97299.27;110257;1247;72361;-75
2022/07/11 06:50:20;;;;;;;2.00;1.60;;;;;;;18.98;50.79;97300.03;110204;1247;67688;-72
2022/07/11 06:52:49;;;;;;;2.70;2.30;;;;;;;18.75;50.66;97296.09;110187;1247;68705;-72
2022/07/11 06:55:18;;;;;;;3.80;2.30;;;;;;;19.02;50.58;97302.38;110183;1247;60869;-72
2022/07/11 06:57:49;;;;;;;2.30;2.00;;;;;;;19.48;49.54;97300.71;110122;1247;60536;-72
2022/07/11 07:00:39;;;;;;;2.60;2.10;;;;;;;20.12;48.50;97295.54;110179;1247;72436;-73
2022/07/11 07:03:08;;;;;;;2.60;2.00;;;;;;;20.20;46.95;97295.84;110152;1247;66917;-68
2022/07/11 07:05:47;;;;;;;3.30;2.00;;;;;;;19.65;47.68;97296.45;110120;1247;68530;-66
2022/07/11 07:08:17;;;;;;;1.70;1.60;;;;;;;19.74;47.90;97298.66;110200;1247;60548;-67
2022/07/11 07:10:46;;;;;;;2.70;1.90;;;;;;;19.98;48.06;97293.22;110259;1247;60495;-67
2022/07/11 07:13:15;;;;;;;2.00;1.90;;;;;;;20.32;47.31;97287.68;110003;1247;72606;-66
2022/07/11 07:15:49;;;;;;;2.70;1.90;;;;;;;20.91;46.23;97293.69;110205;1247;67043;-67
2022/07/11 07:18:33;;;;;;;3.30;1.80;;;;;;;21.38;44.23;97294.67;110181;1247;68621;-68
2022/07/11 07:21:10;;;;;;;1.80;1.50;;;;;;;21.91;44.51;97292.14;110181;1247;60524;-66
2022/07/11 07:23:43;;;;;;;2.10;1.60;;;;;;;22.24;42.81;97290.46;110181;1248;60453;-68
2022/07/11 07:26:12;;;;;;;2.10;1.60;;;;;;;22.69;43.03;97291.87;110120;1248;71601;-65
2022/07/11 07:28:41;;;;;;;4.00;1.90;;;;;;;23.10;41.55;97295.89;109323;1247;922184;-67
2022/07/11 07:31:11;;;;;;;1.70;1.40;;;;;;;23.34;40.85;97291.48;110180;1247;69384;-69
2022/07/11 07:33:44;;;;;;;1.30;1.20;;;;;;;23.55;40.00;97293.10;110238;1247;60491;-68
2022/07/11 07:36:14;;;;;;;3.20;1.30;;;;;;;23.30;38.31;97293.63;110160;1249;60573;-67
2022/07/11 07:38:49;;;;;;;1.30;0.90;;;;;;;23.11;38.63;97294.06;110162;1247;72356;-66
2022/07/11 07:41:23;;;;;;;2.90;1.30;;;;;;;23.28;39.20;97297.66;110126;1247;67905;-67
2022/07/11 07:43:52;;;;;;;1.20;1.10;;;;;;;23.51;37.74;97294.30;110153;1248;69543;-66
2022/07/11 07:46:22;;;;;;;2.40;1.50;;;;;;;23.64;37.70;97299.80;110169;1247;60489;-67
2022/07/11 07:48:51;;;;;;;1.50;1.30;;;;;;;23.76;36.88;97298.81;110184;1247;60935;-67
2022/07/11 07:51:23;;;;;;;2.20;1.40;;;;;;;24.01;36.51;97295.06;110213;1247;72296;-69
2022/07/11 07:53:52;;;;;;;2.80;1.20;;;;;;;24.40;36.35;97297.67;110164;1247;68589;-67
2022/07/11 07:56:24;;;;;;;1.70;1.40;;;;;;;24.79;35.75;97296.91;110164;1248;69448;-66
2022/07/11 07:58:53;;;;;;;;;;;;;;;24.83;35.33;97295.25;109941;1248;60570;-66
2022/07/11 08:01:35;;;;;;;2.40;1.40;;;;;;;25.20;34.66;97295.05;110183;1247;60440;-65
2022/07/11 08:04:06;;;;;;;1.60;1.30;;;;;;;24.64;33.08;97289.58;110203;1247;71011;-67
2022/07/11 08:06:36;;;;;;;2.20;1.20;;;;;;;24.54;33.85;97296.54;110183;1247;68587;-67
2022/07/11 08:09:06;;;;;;;1.90;1.50;;;;;;;24.48;33.89;97298.88;110001;1247;69206;-69
2022/07/11 08:11:35;;;;;;;3.80;1.90;;;;;;;23.30;35.14;97298.55;110109;1247;60516;-67
2022/07/11 08:14:07;;;;;;;2.30;1.40;;;;;;;22.81;36.96;97294.08;110197;1247;60522;-67
2022/07/11 08:16:37;;;;;;;1.70;1.20;;;;;;;23.70;36.57;97297.98;110223;1247;72354;-66
2022/07/11 08:19:06;;;;;;;2.30;1.20;;;;;;;24.22;35.91;97299.63;110260;1247;67931;-71
2022/07/11 08:21:35;;;;;;;1.60;1.30;;;;;;;24.11;34.75;97298.96;110163;1247;68668;-64
2022/07/11 08:24:04;;;;;;;1.30;1.00;;;;;;;24.27;33.81;97297.30;109938;1250;60623;-67
2022/07/11 08:26:35;;;;;;;2.20;1.40;;;;;;;24.30;33.43;97301.72;110166;1247;60444;-67
2022/07/11 08:29:04;;;;;;;1.60;1.20;;;;;;;24.58;33.45;97302.42;109883;1250;72042;-68
2022/07/11 08:31:33;;;;;;;2.40;1.40;;;;;;;23.51;34.68;97302.19;110204;1247;69150;-67
2022/07/11 08:34:03;;;;;;;3.50;1.30;;;;;;;23.25;35.59;97309.05;110237;1247;67826;-67
2022/07/11 08:36:34;;;;;;;1.70;1.10;;;;;;;23.42;35.52;97310.08;109997;1247;60593;-68
2022/07/11 08:39:04;;;;;;;1.80;1.30;;;;;;;23.43;35.28;97307.48;110037;1250;60515;-68
2022/07/11 08:41:42;;;;;;;2.80;1.60;;;;;;;23.32;34.82;97308.98;109963;1250;70976;-69
2022/07/11 08:44:11;;;;;;;1.70;1.10;;;;;;;23.55;35.17;97304.09;110036;1247;68728;-67
2022/07/11 08:46:41;;;;;;;2.20;1.00;;;;;;;23.80;34.16;97307.49;109944;1247;69451;-67
2022/07/11 08:49:12;;;;;;;2.10;1.20;;;;;;;24.15;33.87;97314.55;110177;1247;60933;-67
2022/07/11 08:51:42;;;;;;;3.30;1.00;;;;;;;24.40;33.13;97311.00;110037;1250;60498;-66
2022/07/11 08:54:12;;;;;;;;;;;;;;;24.19;32.23;97310.88;110224;1247;71177;-67
2022/07/11 08:56:45;;;;;;;2.30;1.30;;;;;;;24.12;33.65;97313.52;109946;1250;68009;-68
2022/07/11 08:59:17;;;;;;;1.60;0.90;;;;;;;24.65;32.94;97313.17;110191;1247;69572;-69
2022/07/11 09:01:49;;;;;;;2.40;1.10;;;;;;;25.04;31.72;97305.23;110207;1247;60496;-66
2022/07/11 09:04:19;;;;;;;3.10;1.20;;;;;;;25.14;31.07;97307.90;110135;1247;60568;-67
2022/07/11 09:06:48;;;;;;;1.40;0.90;;;;;;;25.34;31.78;97303.38;110117;1247;70773;-68
2022/07/11 09:09:17;;;;;;;0.90;0.70;;;;;;;25.61;30.10;97300.16;110191;1247;68581;-67
2022/07/11 09:11:54;;;;;;;1.60;0.90;;;;;;;24.64;30.17;97294.70;110145;1247;69116;-67
2022/07/11 09:14:28;;;;;;;3.00;1.30;;;;;;;24.70;31.15;97294.70;110166;1247;60445;-66
2022/07/11 09:17:25;;;;;;;1.30;0.90;;;;;;;24.67;30.83;97288.45;109994;1247;60494;-67
2022/07/11 09:19:55;;;;;;;2.10;0.80;;;;;;;25.18;29.91;97298.45;110172;1247;71806;-67
2022/07/11 09:25:31;;;;;;;1.30;1.00;;;;;;;25.83;29.66;97301.36;110116;1247;68717;-69
2022/07/11 09:28:04;;;;;;;1.50;0.80;;;;;;;26.20;29.78;97303.98;110225;1247;60479;-69
2022/07/11 09:30:43;;;;;;;1.70;0.90;;;;;;;26.62;30.08;97297.23;110212;1247;60834;-70
2022/07/11 09:33:27;;;;;;;1.40;1.10;;;;;;;26.08;28.54;97306.89;110166;1247;71351;-70
2022/07/11 09:36:03;;;;;;;1.10;1.00;;;;;;;24.85;30.23;97305.41;110198;1247;68547;-72
2022/07/11 09:38:32;;;;;;;1.70;1.20;;;;;;;25.21;30.01;97301.48;110187;1246;68659;-69
2022/07/11 09:41:11;;;;;;;1.40;1.00;;;;;;;25.40;30.51;97303.69;110211;1247;60556;-70
2022/07/11 09:43:40;;;;;;;1.20;1.10;;;;;;;26.18;29.30;97303.67;110178;1247;60540;-70
2022/07/11 09:46:09;;;;;;;;;;;;;;;26.37;27.87;97299.17;110175;1247;72210;-71
2022/07/11 09:48:38;;;;;;;1.30;0.80;;;;;;;26.35;27.61;97298.11;110197;1247;68811;-69
2022/07/11 09:51:07;;;;;;;1.30;0.50;;;;;;;26.35;26.66;97293.61;109859;1250;69485;-69
2022/07/11 09:53:52;;;;;;;;;;;;;;;26.54;25.49;97287.75;110149;1249;60967;-70
2022/07/11 09:56:25;;;;;;;0.70;0.60;;;;;;;26.55;25.73;97290.02;110201;1247;60535;-70
2022/07/11 09:59:14;;;;;;;1.40;0.70;;;;;;;26.71;26.09;97285.75;110100;1247;73011;-68
2022/07/11 10:01:44;;;;;;;1.60;0.70;;;;;;;26.31;25.68;97288.52;110186;1247;68554;-69
2022/07/11 10:04:13;;;;;;;0.60;0.60;;;;;;;24.89;26.15;97288.95;110116;1247;69714;-70
2022/07/11 10:06:46;;;;;;;1.30;0.80;;;;;;;24.96;26.46;97291.27;110085;1250;60569;-69
2022/07/11 10:09:15;;;;;;;1.00;0.70;;;;;;;24.84;27.43;97296.25;110184;1247;60415;-70
2022/07/11 10:11:45;;;;;;;1.30;1.00;;;;;;;24.97;28.06;97297.38;110012;1247;71616;-69
2022/07/11 10:14:14;;;;;;;;;;;;;;;25.05;29.36;97297.16;110196;1247;67654;-70
2022/07/11 10:17:05;;;;;;;0.80;0.80;;;;;;;25.42;28.51;97297.57;110162;1247;69290;-69
2022/07/11 10:19:55;;;;;;;0.70;0.60;;;;;;;25.38;25.49;97297.75;110169;1247;60558;-69
2022/07/11 10:22:35;;;;;;;0.70;0.60;;;;;;;25.63;26.17;97301.29;110176;1247;60473;-70
2022/07/11 10:25:29;;;;;;;1.20;0.90;;;;;;;25.83;27.06;97297.16;110204;1247;72339;-69
2022/07/11 10:28:22;;;;;;;0.80;0.80;;;;;;;25.80;27.66;97294.27;110138;1248;67839;-68
2022/07/11 10:30:59;;;;;;;0.90;0.80;;;;;;;25.95;27.56;97291.08;110184;1247;69522;-69
2022/07/11 10:33:30;;;;;;;0.90;0.70;;;;;;;26.10;27.02;97288.22;110026;1247;60551;-69
2022/07/11 10:36:00;;;;;;;3.30;1.00;;;;;;;26.06;28.05;97285.30;110080;1250;60495;-69
2022/07/11 10:38:29;;;;;;;1.00;0.80;;;;;;;26.11;27.56;97290.56;110183;1247;71559;-68
2022/07/11 10:40:59;;;;;;;1.90;0.80;;;;;;;25.78;27.83;97285.83;110023;1247;68779;-69
2022/07/11 10:43:38;;;;;;;1.80;1.00;;;;;;;25.71;28.17;97283.56;110156;1248;68837;-69
2022/07/11 10:46:18;;;;;;;1.40;1.00;;;;;;;25.74;28.51;97281.30;110093;1247;60631;-69
2022/07/11 10:49:09;;;;;;;1.40;0.60;;;;;;;25.90;27.73;97284.38;109942;1250;60583;-68
2022/07/11 10:51:44;;;;;;;1.00;0.90;;;;;;;25.99;27.89;97286.58;110198;1247;72299;-69
2022/07/11 10:54:42;;;;;;;1.10;0.90;;;;;;;25.81;27.62;97278.85;110087;1247;68021;-70
2022/07/11 10:57:34;;;;;;;2.60;1.10;;;;;;;25.78;27.47;97281.41;109980;1248;68669;-69
2022/07/11 11:00:05;;;;;;;1.70;0.90;;;;;;;25.92;26.67;97278.48;110053;1248;60588;-69
2022/07/11 11:03:04;;;;;;;1.20;0.90;;;;;;;26.05;26.62;97279.58;110167;1247;60905;-70
2022/07/11 11:05:52;;;;;;;1.80;1.00;;;;;;;25.43;27.49;97280.59;110211;1247;72788;-71
2022/07/11 11:08:34;;;;;;;1.70;1.00;;;;;;;24.36;29.54;97275.16;110177;1247;69167;-70
2022/07/11 11:11:19;;;;;;;1.40;1.10;;;;;;;24.48;29.02;97279.95;110151;1247;69332;-68
2022/07/11 11:14:27;;;;;;;1.80;1.00;;;;;;;24.07;28.55;97285.89;110123;1248;60477;-69
2022/07/11 11:17:35;;;;;;;1.30;1.10;;;;;;;23.48;29.71;97273.88;110118;1247;60561;-69
2022/07/11 11:20:05;;;;;;;2.20;1.10;;;;;;;24.36;29.68;97273.21;110180;1247;72455;-70
2022/07/11 11:22:34;;;;;;;;;;;;;;;24.84;28.95;97272.40;110208;1247;69110;-71
2022/07/11 11:25:04;;;;;;;1.90;1.10;;;;;;;25.02;28.86;97268.73;110179;1247;68787;-69
2022/07/11 11:28:04;;;;;;;1.10;0.80;;;;;;;25.28;27.90;97272.78;110166;1247;60484;-70
2022/07/11 11:30:33;;;;;;;1.20;0.80;;;;;;;25.59;26.99;97277.23;110223;1247;60567;-72
2022/07/11 11:33:15;;;;;;;1.00;0.70;;;;;;;25.33;26.71;97281.08;110185;1246;71586;-70
2022/07/11 11:35:45;;;;;;;1.20;0.60;;;;;;;25.46;26.67;97271.80;110238;1247;68477;-70
2022/07/11 11:38:14;;;;;;;1.70;0.50;;;;;;;25.67;25.12;97273.27;110195;1247;69454;-71
2022/07/11 11:40:49;;;;;;;1.20;0.60;;;;;;;25.69;25.40;97274.92;110156;1247;60491;-69
2022/07/11 11:43:21;;;;;;;0.60;0.60;;;;;;;24.58;25.30;97262.23;109916;1250;60531;-70
2022/07/11 11:45:52;;;;;;;0.80;0.70;;;;;;;24.27;26.80;97269.77;110203;1247;72215;-68
2022/07/11 11:48:32;;;;;;;1.60;0.60;;;;;;;24.44;27.67;97266.34;109993;1247;67173;-69
2022/07/11 11:51:06;;;;;;;1.30;0.80;;;;;;;24.43;26.55;97268.15;110123;1249;68610;-70
2022/07/11 11:53:40;;;;;;;0.80;0.60;;;;;;;24.55;26.29;97268.59;110189;1247;60533;-70
2022/07/11 11:56:29;;;;;;;0.60;0.60;;;;;;;25.01;26.51;97264.27;110145;1247;60494;-70
2022/07/11 11:59:07;;;;;;;1.20;0.80;;;;;;;25.30;25.25;97264.29;110220;1247;72450;-69
2022/07/11 12:01:48;;;;;;;1.40;0.80;;;;;;;25.29;25.87;97264.50;110128;1247;68753;-69